Time;durP1;ratioP1;P1;durP2;ratioP2;P2;SDS_P1;SDS_P2;PMS_P1;PMS_P2;Temp;Humidity;BMP_temperature;BMP_pressure;BME280_temperature;BME280_humidity;BME280_pressure;Samples;Min_cycle;Max_cycle;Signal;HPM_P1;HPM_P2
2023/11/07 00:02:24;;;;;;;7.70;1.42;;;;;;;;;;5054113;28;20021;-85
2023/11/07 00:04:54;;;;;;;12.55;1.90;;;;;;;;;;5053900;28;20048;-85
2023/11/07 00:07:19;;;;;;;5.28;1.20;;;;;;;;;;5053682;28;20021;-85
2023/11/07 00:09:44;;;;;;;5.93;1.25;;;;;;;;;;5053732;28;20028;-85
2023/11/07 00:12:10;;;;;;;5.13;1.00;;;;;;;;;;5057203;28;20043;-85
2023/11/07 00:14:35;;;;;;;4.03;1.10;;;;;;;;;;5056173;28;20040;-85
2023/11/07 00:17:02;;;;;;;4.00;1.30;;;;;;;;;;5055089;28;20048;-86
2023/11/07 00:19:27;;;;;;;5.40;1.33;;;;;;;;;;5061064;28;20031;-86
2023/11/07 00:21:53;;;;;;;7.43;1.35;;;;;;;;;;5060553;28;20024;-86
2023/11/07 00:24:18;;;;;;;8.70;1.75;;;;;;;;;;5058876;28;20059;-85
2023/11/07 00:26:43;;;;;;;6.88;1.80;;;;;;;;;;5062357;28;20025;-85
2023/11/07 00:29:11;;;;;;;6.57;1.02;;;;;;;;;;5053576;28;20073;-86
2023/11/07 00:31:36;;;;;;;4.95;1.45;;;;;;;;;;5053608;28;20389;-85
2023/11/07 00:34:01;;;;;;;4.35;1.23;;;;;;;;;;5054809;28;20028;-85
2023/11/07 00:36:26;;;;;;;4.40;1.23;;;;;;;;;;5054504;28;20086;-86
2023/11/07 00:38:52;;;;;;;10.55;2.05;;;;;;;;;;5062828;28;20039;-86
2023/11/07 00:41:17;;;;;;;6.68;1.20;;;;;;;;;;5059477;28;20047;-85
2023/11/07 00:43:43;;;;;;;6.35;1.17;;;;;;;;;;5066356;28;20025;-86
2023/11/07 00:46:11;;;;;;;5.30;1.25;;;;;;;;;;5063596;28;20033;-85
2023/11/07 00:48:36;;;;;;;6.03;1.30;;;;;;;;;;5053296;28;20017;-86
2023/11/07 00:51:02;;;;;;;4.38;1.90;;;;;;;;;;5054665;28;20031;-85
2023/11/07 00:53:27;;;;;;;6.40;2.00;;;;;;;;;;5070270;28;20055;-86
2023/11/07 00:55:52;;;;;;;5.30;1.17;;;;;;;;;;5063991;28;20128;-85
2023/11/07 00:58:23;;;;;;;9.32;1.23;;;;;;;;;;5054138;28;20048;-86
2023/11/07 01:00:49;;;;;;;5.10;1.10;;;;;;;;;;5052966;28;20463;-85
2023/11/07 01:03:14;;;;;;;9.82;1.50;;;;;;;;;;5052859;28;20112;-86
2023/11/07 01:05:39;;;;;;;7.38;1.25;;;;;;;;;;5052681;28;20028;-86
2023/11/07 01:08:05;;;;;;;3.15;1.20;;;;;;;;;;5052985;28;20059;-86
2023/11/07 01:10:32;;;;;;;10.15;1.55;;;;;;;;;;5052890;28;20036;-86
2023/11/07 01:12:57;;;;;;;7.35;1.70;;;;;;;;;;5054078;28;20151;-86
2023/11/07 01:15:23;;;;;;;9.90;1.70;;;;;;;;;;5055802;28;20074;-86
2023/11/07 01:17:48;;;;;;;8.68;2.13;;;;;;;;;;5057720;28;20029;-86
2023/11/07 01:20:13;;;;;;;6.88;1.58;;;;;;;;;;5053950;28;20070;-86
2023/11/07 01:22:38;;;;;;;5.28;1.45;;;;;;;;;;5057771;28;20069;-86
2023/11/07 01:25:04;;;;;;;5.38;1.83;;;;;;;;;;5062481;28;20012;-85
2023/11/07 01:27:30;;;;;;;8.77;2.22;;;;;;;;;;5055943;28;20039;-86
2023/11/07 01:29:55;;;;;;;8.60;2.20;;;;;;;;;;5066209;28;20040;-85
2023/11/07 01:32:21;;;;;;;11.02;1.38;;;;;;;;;;5063597;28;20013;-86
2023/11/07 01:34:46;;;;;;;9.10;1.63;;;;;;;;;;5062579;28;20029;-86
2023/11/07 01:37:11;;;;;;;7.20;1.70;;;;;;;;;;5066197;28;20020;-85
2023/11/07 01:39:36;;;;;;;5.90;1.48;;;;;;;;;;5066371;28;20016;-86
2023/11/07 01:42:03;;;;;;;7.38;1.60;;;;;;;;;;5052231;28;20025;-85
2023/11/07 01:44:29;;;;;;;2.85;1.17;;;;;;;;;;5053470;28;20017;-86
2023/11/07 01:46:55;;;;;;;6.55;1.77;;;;;;;;;;5051685;28;20020;-85
2023/11/07 01:49:21;;;;;;;9.63;1.85;;;;;;;;;;5052231;28;20025;-85
2023/11/07 01:51:47;;;;;;;5.05;1.42;;;;;;;;;;5051997;28;20016;-85
2023/11/07 01:54:12;;;;;;;4.55;1.77;;;;;;;;;;5053245;28;20025;-85
2023/11/07 01:56:38;;;;;;;14.00;2.25;;;;;;;;;;5052791;28;20031;-86
2023/11/07 01:59:03;;;;;;;6.22;2.20;;;;;;;;;;5057971;28;20074;-86
2023/11/07 02:01:31;;;;;;;9.93;2.05;;;;;;;;;;5053559;28;20025;-86
2023/11/07 02:03:57;;;;;;;9.05;1.95;;;;;;;;;;5052221;28;20039;-86
2023/11/07 02:06:22;;;;;;;12.35;1.85;;;;;;;;;;5052061;28;20078;-85
2023/11/07 02:08:48;;;;;;;5.30;1.83;;;;;;;;;;5052153;28;20104;-85
2023/11/07 02:11:13;;;;;;;9.13;1.88;;;;;;;;;;5051666;28;20080;-85
2023/11/07 02:13:38;;;;;;;7.10;2.05;;;;;;;;;;5051931;28;20039;-85
2023/11/07 02:16:04;;;;;;;10.70;2.22;;;;;;;;;;5051986;28;20113;-85
2023/11/07 02:18:29;;;;;;;5.03;1.77;;;;;;;;;;5051741;28;20358;-85
2023/11/07 02:20:54;;;;;;;8.25;2.63;;;;;;;;;;5051700;28;20479;-86
2023/11/07 02:23:19;;;;;;;5.25;2.10;;;;;;;;;;5052974;28;20017;-85
2023/11/07 02:25:50;;;;;;;4.10;2.00;;;;;;;;;;5051678;28;20422;-85
2023/11/07 02:28:15;;;;;;;5.75;2.00;;;;;;;;;;5051812;28;20018;-84
2023/11/07 02:30:40;;;;;;;4.40;1.85;;;;;;;;;;5052186;28;20043;-85
2023/11/07 02:33:06;;;;;;;6.65;1.90;;;;;;;;;;5065208;28;20074;-86
2023/11/07 02:35:31;;;;;;;8.35;2.17;;;;;;;;;;5052993;28;20043;-85
2023/11/07 02:37:56;;;;;;;9.98;2.28;;;;;;;;;;5056372;28;20020;-85
2023/11/07 02:40:22;;;;;;;8.63;2.40;;;;;;;;;;5062256;28;20028;-85
2023/11/07 02:42:47;;;;;;;9.82;2.20;;;;;;;;;;5051313;28;20123;-85
2023/11/07 02:45:13;;;;;;;8.95;2.80;;;;;;;;;;5059929;28;20024;-86
2023/11/07 02:47:38;;;;;;;6.25;2.28;;;;;;;;;;5058470;28;20040;-85
2023/11/07 02:50:04;;;;;;;12.88;2.28;;;;;;;;;;5065566;28;20100;-85
2023/11/07 02:52:33;;;;;;;6.25;2.45;;;;;;;;;;5051584;28;20473;-86
2023/11/07 02:55:00;;;;;;;10.43;2.53;;;;;;;;;;5065490;28;20108;-85
2023/11/07 02:57:25;;;;;;;11.27;2.33;;;;;;;;;;5051761;28;20071;-85
2023/11/07 02:59:51;;;;;;;4.35;2.10;;;;;;;;;;5055253;28;20028;-85
2023/11/07 03:02:17;;;;;;;10.05;2.60;;;;;;;;;;5061022;28;20021;-85
2023/11/07 03:04:43;;;;;;;8.63;1.98;;;;;;;;;;5054952;28;20021;-86
2023/11/07 03:07:08;;;;;;;10.15;2.90;;;;;;;;;;5056257;28;20013;-85
2023/11/07 03:09:35;;;;;;;5.05;2.00;;;;;;;;;;5056471;28;20028;-86
2023/11/07 03:12:01;;;;;;;8.55;2.33;;;;;;;;;;5054878;28;20372;-86
2023/11/07 03:14:26;;;;;;;7.90;2.35;;;;;;;;;;5055914;28;20021;-85
2023/11/07 03:16:53;;;;;;;10.43;2.38;;;;;;;;;;5070346;28;20017;-85
2023/11/07 03:19:19;;;;;;;11.43;2.35;;;;;;;;;;5063087;28;20027;-85
2023/11/07 03:21:44;;;;;;;6.82;2.20;;;;;;;;;;5060986;28;20017;-85
2023/11/07 03:24:09;;;;;;;6.97;2.03;;;;;;;;;;5058672;28;20469;-85
2023/11/07 03:26:35;;;;;;;5.80;1.92;;;;;;;;;;5055961;28;20079;-85
2023/11/07 03:29:00;;;;;;;6.43;2.45;;;;;;;;;;5055845;28;20020;-85
2023/11/07 03:31:26;;;;;;;10.15;2.47;;;;;;;;;;5054894;28;20013;-85
2023/11/07 03:33:51;;;;;;;6.38;2.00;;;;;;;;;;5069748;28;20016;-85
2023/11/07 03:36:17;;;;;;;16.33;2.17;;;;;;;;;;5069339;28;20020;-86
2023/11/07 03:38:45;;;;;;;8.75;2.83;;;;;;;;;;5068159;28;20112;-86
2023/11/07 03:41:10;;;;;;;11.73;2.58;;;;;;;;;;5061764;28;20372;-85
2023/11/07 03:43:36;;;;;;;5.43;2.05;;;;;;;;;;5074722;28;20016;-86
2023/11/07 03:46:04;;;;;;;6.10;2.10;;;;;;;;;;5061820;28;20530;-85
2023/11/07 03:48:32;;;;;;;6.43;2.05;;;;;;;;;;5040621;28;20380;-85
2023/11/07 03:50:57;;;;;;;12.65;2.45;;;;;;;;;;5061558;28;20485;-86
2023/11/07 03:53:22;;;;;;;11.93;2.80;;;;;;;;;;5069761;28;20044;-86
2023/11/07 03:55:48;;;;;;;5.38;2.15;;;;;;;;;;5054467;28;20104;-86
2023/11/07 03:58:14;;;;;;;7.10;2.45;;;;;;;;;;5056463;28;20021;-85
2023/11/07 04:00:40;;;;;;;7.03;2.35;;;;;;;;;;5067194;28;20036;-85
2023/11/07 04:03:06;;;;;;;7.72;2.00;;;;;;;;;;5055448;28;20025;-86
2023/11/07 04:05:34;;;;;;;5.80;1.77;;;;;;;;;;5060897;28;20017;-86
2023/11/07 04:07:59;;;;;;;8.80;2.50;;;;;;;;;;5061315;28;20108;-85
2023/11/07 04:10:25;;;;;;;7.97;2.40;;;;;;;;;;5059457;28;20396;-86
2023/11/07 04:12:56;;;;;;;5.60;2.03;;;;;;;;;;5063287;28;20216;-86
2023/11/07 04:15:22;;;;;;;5.00;1.67;;;;;;;;;;5058226;28;20103;-85
2023/11/07 04:17:50;;;;;;;7.03;1.80;;;;;;;;;;5066077;28;20021;-86
2023/11/07 04:20:16;;;;;;;5.82;2.10;;;;;;;;;;5054225;28;20476;-86
2023/11/07 04:22:42;;;;;;;15.38;2.72;;;;;;;;;;5055056;28;20044;-86
2023/11/07 04:25:07;;;;;;;6.53;2.35;;;;;;;;;;5053877;28;20268;-86
2023/11/07 04:27:34;;;;;;;9.15;2.50;;;;;;;;;;5059190;28;20024;-85
2023/11/07 04:30:00;;;;;;;5.15;2.20;;;;;;;;;;5061725;28;20013;-85
2023/11/07 04:32:25;;;;;;;5.70;2.30;;;;;;;;;;5053517;28;20036;-85
2023/11/07 04:34:51;;;;;;;7.88;2.47;;;;;;;;;;5053288;28;20043;-86
2023/11/07 04:37:19;;;;;;;7.50;2.55;;;;;;;;;;5053310;28;20126;-85
2023/11/07 04:39:44;;;;;;;4.60;2.13;;;;;;;;;;5058935;28;20020;-86
2023/11/07 04:42:10;;;;;;;12.48;2.65;;;;;;;;;;5059835;28;20017;-85
2023/11/07 04:44:35;;;;;;;7.22;2.35;;;;;;;;;;5052624;28;20052;-85
2023/11/07 04:47:05;;;;;;;9.57;2.63;;;;;;;;;;5060091;28;20078;-85
2023/11/07 04:49:30;;;;;;;8.52;3.03;;;;;;;;;;5053066;28;20029;-86
2023/11/07 04:51:56;;;;;;;7.20;2.53;;;;;;;;;;5053296;28;20035;-86
2023/11/07 04:54:22;;;;;;;11.30;2.92;;;;;;;;;;5053208;28;20021;-86
2023/11/07 04:56:51;;;;;;;7.65;2.33;;;;;;;;;;5058709;28;20051;-86
2023/11/07 04:59:19;;;;;;;8.70;2.70;;;;;;;;;;5063553;28;20131;-86
2023/11/07 05:01:47;;;;;;;10.90;2.40;;;;;;;;;;5067102;28;20408;-86
2023/11/07 05:04:14;;;;;;;9.10;2.80;;;;;;;;;;5053046;28;20052;-86
2023/11/07 05:06:41;;;;;;;5.65;2.45;;;;;;;;;;5063519;28;20032;-86
2023/11/07 05:09:08;;;;;;;9.73;2.65;;;;;;;;;;5054324;28;20368;-86
2023/11/07 05:11:34;;;;;;;6.68;2.20;;;;;;;;;;5053294;28;20025;-86
2023/11/07 05:14:00;;;;;;;8.00;2.80;;;;;;;;;;5067680;28;20445;-86
2023/11/07 05:16:26;;;;;;;6.47;3.15;;;;;;;;;;5052957;28;20095;-85
2023/11/07 05:18:52;;;;;;;7.80;2.65;;;;;;;;;;5063332;28;20017;-86
2023/11/07 05:21:17;;;;;;;7.55;2.53;;;;;;;;;;5052302;28;20035;-86
2023/11/07 05:23:43;;;;;;;12.15;2.63;;;;;;;;;;5053863;28;20021;-86
2023/11/07 05:26:09;;;;;;;4.78;2.38;;;;;;;;;;5047831;28;20100;-86
2023/11/07 05:28:37;;;;;;;7.03;2.60;;;;;;;;;;5047144;28;20476;-86
2023/11/07 05:31:02;;;;;;;7.43;2.42;;;;;;;;;;5052371;28;20016;-87
2023/11/07 05:33:28;;;;;;;7.13;2.75;;;;;;;;;;5052684;28;20422;-86
2023/11/07 05:35:53;;;;;;;5.70;2.40;;;;;;;;;;5053681;28;20017;-86
2023/11/07 05:38:19;;;;;;;6.00;2.53;;;;;;;;;;5060422;28;20048;-85
2023/11/07 05:40:45;;;;;;;7.15;2.67;;;;;;;;;;5063573;28;20420;-86
2023/11/07 05:43:10;;;;;;;7.50;2.42;;;;;;;;;;5052072;28;20031;-86
2023/11/07 05:45:35;;;;;;;5.60;2.00;;;;;;;;;;5053637;28;20021;-86
2023/11/07 05:48:01;;;;;;;9.50;2.50;;;;;;;;;;5052149;28;20384;-86
2023/11/07 05:50:26;;;;;;;9.88;2.00;;;;;;;;;;5053554;28;20012;-86
2023/11/07 05:52:52;;;;;;;10.68;3.05;;;;;;;;;;5052171;28;20020;-85
2023/11/07 05:55:17;;;;;;;6.88;2.55;;;;;;;;;;5053291;28;20017;-86
2023/11/07 05:57:42;;;;;;;6.57;2.28;;;;;;;;;;5052286;28;20104;-86
2023/11/07 06:00:10;;;;;;;8.00;3.28;;;;;;;;;;5053261;28;20047;-86
2023/11/07 06:02:36;;;;;;;9.85;2.70;;;;;;;;;;5052168;28;20499;-87
2023/11/07 06:05:01;;;;;;;7.72;2.88;;;;;;;;;;5051592;28;20104;-86
2023/11/07 06:07:27;;;;;;;7.63;2.95;;;;;;;;;;5053126;28;20013;-86
2023/11/07 06:09:52;;;;;;;10.48;2.60;;;;;;;;;;5051977;28;20039;-86
2023/11/07 06:12:17;;;;;;;9.43;3.05;;;;;;;;;;5051912;28;20032;-86
2023/11/07 06:14:45;;;;;;;8.77;2.50;;;;;;;;;;5054507;28;20067;-86
2023/11/07 06:17:12;;;;;;;7.72;2.80;;;;;;;;;;5051770;28;20017;-86
2023/11/07 06:19:37;;;;;;;6.18;2.90;;;;;;;;;;5052929;28;20013;-86
2023/11/07 06:22:02;;;;;;;5.78;2.78;;;;;;;;;;5054153;28;20062;-86
2023/11/07 06:24:27;;;;;;;7.30;2.85;;;;;;;;;;5063305;28;20025;-86
2023/11/07 06:26:53;;;;;;;8.50;3.20;;;;;;;;;;5051114;28;20021;-86
2023/11/07 06:29:18;;;;;;;14.38;3.70;;;;;;;;;;5051880;28;20040;-86
2023/11/07 06:31:45;;;;;;;8.55;3.08;;;;;;;;;;5046780;28;20017;-86
2023/11/07 06:34:11;;;;;;;12.23;3.03;;;;;;;;;;5073900;28;20032;-86
2023/11/07 06:36:36;;;;;;;12.00;3.58;;;;;;;;;;5065567;28;20025;-86
2023/11/07 06:39:02;;;;;;;12.35;4.47;;;;;;;;;;5058087;28;20071;-87
2023/11/07 06:41:28;;;;;;;10.27;4.53;;;;;;;;;;5073864;28;20024;-86
2023/11/07 06:43:53;;;;;;;12.05;3.70;;;;;;;;;;5065276;28;20353;-86
2023/11/07 06:46:18;;;;;;;12.00;4.55;;;;;;;;;;5055413;28;20016;-86
2023/11/07 06:48:46;;;;;;;9.85;3.85;;;;;;;;;;5055620;28;20017;-86
2023/11/07 06:51:11;;;;;;;16.45;4.07;;;;;;;;;;5055446;28;20063;-86
2023/11/07 06:53:37;;;;;;;7.85;3.67;;;;;;;;;;5063183;28;20031;-85
2023/11/07 06:56:03;;;;;;;8.85;3.40;;;;;;;;;;5063230;28;20021;-85
2023/11/07 06:58:28;;;;;;;8.82;4.05;;;;;;;;;;5055393;28;20052;-86
2023/11/07 07:00:54;;;;;;;8.60;3.85;;;;;;;;;;5057359;28;20029;-87
2023/11/07 07:03:19;;;;;;;10.85;4.63;;;;;;;;;;5057316;28;20055;-85
2023/11/07 07:05:45;;;;;;;13.32;4.57;;;;;;;;;;5054868;28;20061;-85
2023/11/07 07:08:10;;;;;;;7.40;3.58;;;;;;;;;;5065768;28;20025;-85
2023/11/07 07:10:35;;;;;;;9.65;4.18;;;;;;;;;;5055133;28;20063;-86
2023/11/07 07:13:02;;;;;;;9.00;4.00;;;;;;;;;;5055433;28;20033;-86
2023/11/07 07:15:28;;;;;;;12.18;4.35;;;;;;;;;;5059341;28;20032;-86
2023/11/07 07:17:53;;;;;;;10.73;4.30;;;;;;;;;;5064927;28;20104;-86
2023/11/07 07:20:18;;;;;;;8.07;4.05;;;;;;;;;;5071269;28;20025;-87
2023/11/07 07:22:47;;;;;;;8.98;3.80;;;;;;;;;;5057142;28;20033;-87
2023/11/07 07:25:16;;;;;;;15.10;4.20;;;;;;;;;;5054855;28;20017;-86
2023/11/07 07:27:45;;;;;;;9.70;4.07;;;;;;;;;;5061970;28;20028;-87
2023/11/07 07:30:20;;;;;;;9.40;3.85;;;;;;;;;;5059450;28;20021;-87
2023/11/07 07:32:45;;;;;;;6.10;3.20;;;;;;;;;;5054219;28;20385;-86
2023/11/07 07:35:15;;;;;;;14.43;4.18;;;;;;;;;;5060805;28;20388;-86
2023/11/07 07:37:40;;;;;;;14.18;4.53;;;;;;;;;;5054910;28;20079;-87
2023/11/07 07:40:08;;;;;;;13.38;4.63;;;;;;;;;;5054604;28;20032;-86
2023/11/07 07:42:35;;;;;;;9.05;3.92;;;;;;;;;;5054745;28;20017;-87
2023/11/07 07:45:01;;;;;;;13.15;4.65;;;;;;;;;;5053733;28;20358;-86
2023/11/07 07:47:26;;;;;;;13.90;5.43;;;;;;;;;;5054524;28;20044;-87
2023/11/07 07:49:53;;;;;;;11.60;4.22;;;;;;;;;;5056224;28;20082;-86
2023/11/07 07:52:22;;;;;;;10.45;3.92;;;;;;;;;;5054224;28;20098;-86
2023/11/07 07:54:50;;;;;;;9.95;4.55;;;;;;;;;;5054104;28;20029;-87
2023/11/07 07:57:17;;;;;;;15.32;4.57;;;;;;;;;;5061597;28;20039;-87
2023/11/07 07:59:44;;;;;;;8.48;3.97;;;;;;;;;;5060594;28;20032;-86
2023/11/07 08:02:09;;;;;;;8.02;4.18;;;;;;;;;;5055405;28;20379;-86
2023/11/07 08:04:35;;;;;;;7.20;3.67;;;;;;;;;;5054134;28;20025;-86
2023/11/07 08:07:00;;;;;;;11.55;3.80;;;;;;;;;;5055418;28;20020;-87
2023/11/07 08:09:26;;;;;;;9.27;3.67;;;;;;;;;;5054360;28;20103;-87
2023/11/07 08:11:53;;;;;;;9.38;3.50;;;;;;;;;;5069094;28;20020;-86
2023/11/07 08:14:22;;;;;;;6.28;2.90;;;;;;;;;;5074157;28;20028;-86
2023/11/07 08:16:49;;;;;;;8.60;2.95;;;;;;;;;;5062904;28;20060;-87
2023/11/07 08:19:15;;;;;;;9.15;2.72;;;;;;;;;;5054880;28;20357;-86
2023/11/07 08:21:40;;;;;;;8.68;2.60;;;;;;;;;;5054737;28;20021;-86
2023/11/07 08:24:06;;;;;;;7.78;2.28;;;;;;;;;;5048405;28;20031;-86
2023/11/07 08:26:33;;;;;;;4.45;2.38;;;;;;;;;;5047734;28;20021;-85
2023/11/07 08:29:00;;;;;;;11.52;2.40;;;;;;;;;;5052502;28;20384;-85
2023/11/07 08:31:26;;;;;;;9.13;2.40;;;;;;;;;;5054748;28;20040;-86
2023/11/07 08:33:51;;;;;;;6.72;2.20;;;;;;;;;;5053170;28;20036;-86
2023/11/07 08:36:17;;;;;;;5.10;2.10;;;;;;;;;;5053158;28;20125;-87
2023/11/07 08:38:42;;;;;;;7.63;2.15;;;;;;;;;;5054468;28;20463;-87
2023/11/07 08:41:08;;;;;;;6.40;1.70;;;;;;;;;;5070583;28;20051;-86
2023/11/07 08:43:34;;;;;;;4.95;1.70;;;;;;;;;;5065684;28;20067;-85
2023/11/07 08:46:00;;;;;;;9.13;2.05;;;;;;;;;;5054884;28;20495;-86
2023/11/07 08:48:25;;;;;;;6.32;1.77;;;;;;;;;;5053321;28;20013;-86
2023/11/07 08:50:51;;;;;;;6.13;2.30;;;;;;;;;;5054598;28;20032;-86
2023/11/07 08:53:18;;;;;;;9.65;2.75;;;;;;;;;;5067331;28;20070;-86
2023/11/07 08:55:43;;;;;;;11.68;2.85;;;;;;;;;;5053446;28;20063;-86
2023/11/07 08:58:09;;;;;;;6.25;2.33;;;;;;;;;;5068611;28;20024;-86
2023/11/07 09:00:34;;;;;;;10.07;2.15;;;;;;;;;;5062088;28;20110;-86
2023/11/07 09:02:59;;;;;;;6.35;2.83;;;;;;;;;;5059392;28;20039;-87
2023/11/07 09:05:24;;;;;;;5.63;1.85;;;;;;;;;;5058586;28;20096;-86
2023/11/07 09:07:50;;;;;;;5.97;1.75;;;;;;;;;;5062857;28;20023;-87
2023/11/07 09:10:20;;;;;;;8.95;1.95;;;;;;;;;;5058292;28;20028;-87
2023/11/07 09:12:45;;;;;;;4.05;1.48;;;;;;;;;;5061437;28;20056;-89
2023/11/07 09:15:11;;;;;;;2.97;1.33;;;;;;;;;;5067298;28;20028;-86
2023/11/07 09:17:39;;;;;;;4.53;1.58;;;;;;;;;;5052887;28;20128;-90
2023/11/07 09:20:05;;;;;;;2.53;1.45;;;;;;;;;;5052962;28;20031;-90
2023/11/07 09:22:31;;;;;;;6.90;1.50;;;;;;;;;;5052707;28;20024;-88
2023/11/07 09:24:57;;;;;;;4.32;1.70;;;;;;;;;;5052749;28;20013;-90
2023/11/07 09:27:22;;;;;;;5.38;1.80;;;;;;;;;;5058519;28;20012;-89
2023/11/07 09:29:48;;;;;;;5.70;1.58;;;;;;;;;;5060413;28;20032;-91
2023/11/07 09:32:13;;;;;;;4.15;1.77;;;;;;;;;;5056284;28;20016;-88
2023/11/07 09:34:40;;;;;;;3.70;1.80;;;;;;;;;;5066757;28;20027;-89
2023/11/07 09:37:07;;;;;;;6.22;1.85;;;;;;;;;;5056524;28;20412;-90
2023/11/07 09:39:32;;;;;;;7.95;2.08;;;;;;;;;;5066344;28;20410;-89
2023/11/07 09:41:58;;;;;;;5.40;2.03;;;;;;;;;;5053791;28;20027;-87
2023/11/07 09:44:23;;;;;;;9.68;2.50;;;;;;;;;;5052343;28;20029;-88
2023/11/07 09:46:49;;;;;;;4.57;2.50;;;;;;;;;;5058777;28;20013;-88
2023/11/07 09:49:17;;;;;;;5.35;2.67;;;;;;;;;;5061227;28;20017;-88
2023/11/07 09:51:43;;;;;;;6.40;2.50;;;;;;;;;;5052576;28;20405;-88
2023/11/07 09:54:14;;;;;;;5.70;2.20;;;;;;;;;;5052711;28;20025;-88
2023/11/07 09:56:39;;;;;;;6.35;3.13;;;;;;;;;;5055969;28;20338;-86
2023/11/07 09:59:21;;;;;;;7.15;2.92;;;;;;;;;;5063432;28;20047;-90
2023/11/07 10:01:46;;;;;;;9.32;2.75;;;;;;;;;;5054449;28;20480;-89
2023/11/07 10:04:12;;;;;;;7.82;2.78;;;;;;;;;;5052168;28;20357;-87
2023/11/07 10:06:38;;;;;;;4.30;2.60;;;;;;;;;;5051824;28;20362;-89
2023/11/07 10:09:04;;;;;;;8.73;3.30;;;;;;;;;;5052549;28;20013;-88
2023/11/07 10:11:43;;;;;;;7.65;3.38;;;;;;;;;;5052505;28;20369;-89
2023/11/07 10:14:08;;;;;;;6.90;3.00;;;;;;;;;;5040762;28;20021;-88
2023/11/07 10:16:38;;;;;;;7.15;3.22;;;;;;;;;;5052260;28;20051;-88
2023/11/07 10:19:07;;;;;;;9.20;3.00;;;;;;;;;;5052142;28;20017;-89
2023/11/07 10:21:33;;;;;;;9.45;3.13;;;;;;;;;;5052111;28;20024;-89
2023/11/07 10:24:01;;;;;;;12.38;2.88;;;;;;;;;;5052022;28;20059;-88
2023/11/07 10:26:26;;;;;;;9.63;2.90;;;;;;;;;;5055307;28;20124;-89
2023/11/07 10:29:13;;;;;;;3.10;1.77;;;;;;;;;;5055870;28;20070;-88
2023/11/07 10:31:42;;;;;;;5.95;2.30;;;;;;;;;;5072074;28;20321;-87
2023/11/07 10:34:11;;;;;;;4.28;2.08;;;;;;;;;;5053856;28;20039;-88
2023/11/07 10:36:41;;;;;;;5.90;2.17;;;;;;;;;;5050621;28;20112;-88
2023/11/07 10:39:09;;;;;;;5.38;2.20;;;;;;;;;;5064750;28;20027;-89
2023/11/07 10:41:35;;;;;;;4.40;1.85;;;;;;;;;;5057679;28;20426;-88
2023/11/07 10:44:14;;;;;;;6.10;2.25;;;;;;;;;;5060287;28;20096;-88
2023/11/07 10:46:40;;;;;;;4.85;1.92;;;;;;;;;;5063709;28;20059;-90
2023/11/07 10:49:06;;;;;;;4.60;1.83;;;;;;;;;;5060449;28;20021;-87
2023/11/07 10:51:32;;;;;;;5.63;2.03;;;;;;;;;;5065828;28;20020;-88
2023/11/07 10:53:58;;;;;;;4.05;1.90;;;;;;;;;;5053429;28;20032;-91
2023/11/07 10:56:29;;;;;;;6.82;3.03;;;;;;;;;;5052925;28;20472;-89
2023/11/07 10:59:02;;;;;;;4.95;2.10;;;;;;;;;;5051570;28;20032;-90
2023/11/07 11:01:27;;;;;;;6.78;2.45;;;;;;;;;;5051353;28;20028;-90
2023/11/07 11:03:54;;;;;;;5.28;1.67;;;;;;;;;;5059826;28;20016;-90
2023/11/07 11:06:23;;;;;;;5.80;1.80;;;;;;;;;;5058384;28;20024;-89
2023/11/07 11:08:50;;;;;;;6.75;2.03;;;;;;;;;;5057386;28;20376;-91
2023/11/07 11:11:19;;;;;;;6.55;2.00;;;;;;;;;;5061657;28;20360;-92
2023/11/07 11:13:45;;;;;;;10.55;2.13;;;;;;;;;;5056197;28;20082;-88
2023/11/07 11:16:12;;;;;;;4.40;1.83;;;;;;;;;;5060879;28;20036;-90
2023/11/07 11:18:45;;;;;;;4.32;1.52;;;;;;;;;;5055615;28;20067;-90
2023/11/07 11:21:16;;;;;;;4.25;1.50;;;;;;;;;;5065736;28;20017;-89
2023/11/07 11:23:44;;;;;;;5.63;1.88;;;;;;;;;;5056217;28;20494;-89
2023/11/07 11:26:39;;;;;;;3.45;1.23;;;;;;;;;;5055061;28;20310;-89
2023/11/07 11:29:25;;;;;;;5.10;1.35;;;;;;;;;;5050320;28;20024;-88
2023/11/07 11:31:50;;;;;;;4.32;1.33;;;;;;;;;;5058474;28;20384;-88
2023/11/07 11:34:36;;;;;;;7.95;1.73;;;;;;;;;;5055190;28;20490;-89
2023/11/07 11:37:01;;;;;;;6.45;1.52;;;;;;;;;;5057926;28;20054;-89
2023/11/07 11:39:27;;;;;;;6.25;1.65;;;;;;;;;;5073122;28;20024;-89
2023/11/07 11:41:56;;;;;;;3.78;1.77;;;;;;;;;;5055107;28;20021;-89
2023/11/07 11:44:24;;;;;;;4.35;1.50;;;;;;;;;;5056684;28;20366;-90
2023/11/07 11:46:49;;;;;;;3.95;1.30;;;;;;;;;;5068721;28;20029;-91
2023/11/07 11:49:17;;;;;;;3.20;1.38;;;;;;;;;;5055252;28;20017;-90
2023/11/07 11:51:46;;;;;;;6.40;1.67;;;;;;;;;;5055688;28;20520;-90
2023/11/07 11:54:26;;;;;;;5.07;1.48;;;;;;;;;;5055432;28;20029;-90
2023/11/07 11:56:51;;;;;;;4.63;1.83;;;;;;;;;;5057356;28;20034;-91
2023/11/07 11:59:16;;;;;;;6.10;1.70;;;;;;;;;;5059753;28;20101;-90
2023/11/07 12:01:49;;;;;;;8.15;1.73;;;;;;;;;;5060998;28;20013;-91
2023/11/07 12:04:32;;;;;;;8.15;2.60;;;;;;;;;;5068177;28;20024;-90
2023/11/07 12:07:07;;;;;;;8.23;1.80;;;;;;;;;;5059206;28;20584;-90
2023/11/07 12:09:38;;;;;;;5.90;2.03;;;;;;;;;;5058856;28;20458;-89
2023/11/07 12:12:04;;;;;;;3.63;1.50;;;;;;;;;;5063785;28;20425;-91
2023/11/07 12:14:30;;;;;;;8.57;1.50;;;;;;;;;;5065633;28;20558;-90
2023/11/07 12:17:01;;;;;;;3.53;1.30;;;;;;;;;;5053125;28;20021;-90
2023/11/07 12:19:28;;;;;;;4.87;1.40;;;;;;;;;;5056771;28;20475;-90
2023/11/07 12:21:56;;;;;;;4.20;1.48;;;;;;;;;;5057540;28;20124;-92
2023/11/07 12:24:21;;;;;;;5.88;1.40;;;;;;;;;;5068928;28;20013;-91
2023/11/07 12:26:47;;;;;;;4.35;1.35;;;;;;;;;;5052169;28;20100;-91
2023/11/07 12:29:13;;;;;;;5.97;1.42;;;;;;;;;;5054647;28;20013;-91
2023/11/07 12:31:40;;;;;;;3.75;1.38;;;;;;;;;;5056000;28;20096;-91
2023/11/07 12:34:06;;;;;;;4.32;1.10;;;;;;;;;;5055127;28;20051;-92
2023/11/07 12:36:35;;;;;;;5.25;1.73;;;;;;;;;;5054702;28;20025;-92
2023/11/07 12:39:02;;;;;;;6.57;2.10;;;;;;;;;;5055259;28;20036;-91
2023/11/07 12:41:28;;;;;;;2.80;1.15;;;;;;;;;;5067235;28;20583;-91
2023/11/07 12:43:54;;;;;;;4.88;1.65;;;;;;;;;;5055850;28;20040;-93
2023/11/07 12:46:20;;;;;;;4.70;1.52;;;;;;;;;;5060880;28;20013;-90
2023/11/07 12:48:45;;;;;;;4.50;1.65;;;;;;;;;;5054522;28;20013;-89
2023/11/07 12:51:11;;;;;;;4.80;1.70;;;;;;;;;;5055088;28;20379;-91
2023/11/07 12:53:48;;;;;;;6.35;1.67;;;;;;;;;;5054855;28;20041;-92
2023/11/07 12:56:18;;;;;;;2.47;1.20;;;;;;;;;;5068434;28;20475;-91
2023/11/07 12:58:45;;;;;;;2.83;1.60;;;;;;;;;;5054291;28;20021;-91
2023/11/07 13:01:11;;;;;;;3.58;1.50;;;;;;;;;;5053589;28;20538;-90
2023/11/07 13:03:37;;;;;;;5.35;1.80;;;;;;;;;;5054481;28;20372;-91
2023/11/07 13:06:09;;;;;;;7.25;1.45;;;;;;;;;;5055560;28;20013;-90
2023/11/07 13:08:47;;;;;;;2.63;1.20;;;;;;;;;;5072040;28;20536;-90
2023/11/07 13:11:13;;;;;;;3.75;1.17;;;;;;;;;;5067300;28;20048;-91
2023/11/07 13:13:39;;;;;;;3.65;1.02;;;;;;;;;;5056215;28;20020;-92
2023/11/07 13:16:07;;;;;;;2.60;1.02;;;;;;;;;;5053854;28;20028;-92
2023/11/07 13:18:32;;;;;;;2.67;1.00;;;;;;;;;;5054340;28;20021;-92
2023/11/07 13:20:57;;;;;;;4.00;1.65;;;;;;;;;;5061820;28;20024;-88
2023/11/07 13:23:23;;;;;;;2.83;0.80;;;;;;;;;;5060724;28;20538;-90
2023/11/07 13:25:48;;;;;;;4.15;1.00;;;;;;;;;;5056053;28;20016;-89
2023/11/07 13:28:14;;;;;;;3.35;1.00;;;;;;;;;;5053059;28;20024;-89
2023/11/07 13:30:41;;;;;;;5.53;1.00;;;;;;;;;;5053373;28;20021;-91
2023/11/07 13:33:06;;;;;;;1.55;0.88;;;;;;;;;;5053060;28;20044;-90
2023/11/07 13:35:36;;;;;;;2.22;0.98;;;;;;;;;;5054016;28;20017;-90
2023/11/07 13:38:02;;;;;;;4.13;1.20;;;;;;;;;;5057097;28;20013;-89
2023/11/07 13:40:31;;;;;;;2.78;0.93;;;;;;;;;;5064483;28;20028;-90
2023/11/07 13:42:56;;;;;;;1.90;1.00;;;;;;;;;;5053750;28;20024;-91
2023/11/07 13:45:22;;;;;;;3.22;1.20;;;;;;;;;;5054531;28;20024;-90
2023/11/07 13:47:47;;;;;;;3.00;1.00;;;;;;;;;;5053982;28;20084;-91
2023/11/07 13:50:13;;;;;;;2.35;0.98;;;;;;;;;;5053381;28;20054;-89
2023/11/07 13:52:41;;;;;;;4.13;1.20;;;;;;;;;;5053285;28;20025;-89
2023/11/07 13:55:06;;;;;;;1.70;0.90;;;;;;;;;;5069054;28;20051;-91
2023/11/07 13:57:32;;;;;;;1.42;0.70;;;;;;;;;;5057987;28;20017;-90
2023/11/07 13:59:57;;;;;;;3.20;0.65;;;;;;;;;;5055509;28;20021;-90
2023/11/07 14:02:24;;;;;;;6.72;0.60;;;;;;;;;;5060089;28;20086;-90
2023/11/07 14:04:49;;;;;;;2.38;0.82;;;;;;;;;;5060295;28;20372;-90
2023/11/07 14:07:15;;;;;;;1.15;0.57;;;;;;;;;;5060677;28;20039;-90
2023/11/07 14:09:43;;;;;;;3.72;0.73;;;;;;;;;;5059044;28;20029;-89
2023/11/07 14:12:08;;;;;;;1.70;0.63;;;;;;;;;;5063904;28;20024;-90
2023/11/07 14:14:34;;;;;;;1.38;0.60;;;;;;;;;;5061449;28;20074;-91
2023/11/07 14:17:00;;;;;;;2.10;0.47;;;;;;;;;;5052275;28;20021;-89
2023/11/07 14:19:25;;;;;;;1.00;0.60;;;;;;;;;;5051978;28;20146;-90
2023/11/07 14:21:51;;;;;;;4.28;0.90;;;;;;;;;;5052744;28;20075;-89
2023/11/07 14:24:18;;;;;;;5.18;0.57;;;;;;;;;;5064908;28;20013;-89
2023/11/07 14:26:44;;;;;;;1.60;0.60;;;;;;;;;;5052137;28;20032;-89
2023/11/07 14:29:09;;;;;;;1.70;0.70;;;;;;;;;;5067197;28;20013;-89
2023/11/07 14:31:35;;;;;;;1.90;0.50;;;;;;;;;;5052085;28;20103;-90
2023/11/07 14:34:00;;;;;;;4.03;0.63;;;;;;;;;;5055117;28;20099;-89
2023/11/07 14:36:26;;;;;;;2.08;0.63;;;;;;;;;;5064061;28;20016;-89
2023/11/07 14:38:54;;;;;;;2.42;0.70;;;;;;;;;;5057342;28;20107;-90